Weather Models
Both GFS & NAM
00z 06z 12z 18z
24hr Precip
00z 06z 12z 18z
36hr Simulated radar
00z 06z 12z 18z
SKEWT Soundings
00z 12z
Current Conditions (Updated 8:50pm on 10/21/20)
Temperature
 71°
-1.18
75°  
61°  
0
10
20
30
40
50
60
70
80
90
100
Dew Point
66°
67°  
59°  
-20
-10
0
10
20
30
40
50
60
70
80
Heat Index
76°
79°  
67°  
30
40
50
60
70
80
90
100
110
120
130
Heat Index
Humidity
84%
95% 
72% 
0
10
20
30
40
50
60
70
80
90
100
Barometer
30.22
   Steady
30.31  
30.19  
28.00
28.30
28.60
28.90
29.20
29.50
29.80
30.10
30.40
30.70
31.00
Temperature
Dew Point
Humidity
Pressure
Wind
5mph
SSW
Daily Rain
.00
.05
.10
.15
.20
.25
.30
.35
.40
.45
.50
Rain Today
 0.00" 
Month Rain
0.00
0.50
1.00
1.50
2.00
2.50
3.00
3.50
4.00
4.50
5.00
Month Rain
 2.52" 
Year Rain
0.00
5.00
10.00
15.00
20.00
25.00
30.00
35.00
40.00
45.00
50.00
Year Rain
 37.04" 
Sun & Moon Data
Sunrise 7:19am
Sunset 6:13pm
Moonrise 12:55pm
Moonset 10:13pm
Moon % 26%
Other Rain Data
Past Hour 0.00 Past 24 Hours 0.00
Past 3 Hours 0.00 Past 7 Days 1.10
Past 6 Hours 0.00
Cloud Height
1266


Current Front Map
Current Satellite map
7 Day Forecast
NWS Forecast for Philadelphia PA
National Weather Service Forecast for: Philadelphia PA
Issued by: National Weather Service Philadelphia, PA
Updated: 7:08 pm EDT Oct 21, 2020

Philadelphia PA.
 
Tonight

Tonight: Patchy fog after 10pm.  Otherwise, mostly cloudy, with a low around 61. Southwest wind around 5 mph becoming calm  in the evening.
Patchy Fog


Thursday

Thursday: Areas of fog before 11am.  Otherwise, mostly cloudy, with a high near 74. Calm wind.
Areas Fog
then Partly
Sunny

Thursday
Night
Thursday Night: Patchy drizzle after 5am.  Patchy fog after 2am.  Otherwise, mostly cloudy, with a low around 59. Calm wind.
Mostly Cloudy
then Patchy
Drizzle and
Patchy Fog
Friday

Friday: Patchy drizzle and fog before 10am.  Mostly cloudy, with a high near 72. Light east wind becoming southeast 5 to 10 mph in the afternoon.
Patchy
Drizzle and
Patchy Fog
then Partly
Sunny
Friday
Night
Friday Night: Mostly cloudy, with a low around 59. Calm wind.
Mostly Cloudy


Saturday

Saturday: Partly sunny, with a high near 73.
Partly Sunny


Saturday
Night
Saturday Night: Mostly cloudy, with a low around 50.
Mostly Cloudy


Sunday

Sunday: Partly sunny, with a high near 60.
Partly Sunny


Sunday
Night
Sunday Night: Mostly cloudy, with a low around 52.
Mostly Cloudy


Lo 61 °F Hi 74 °F Lo 59 °F Hi 72 °F Lo 59 °F Hi 73 °F Lo 50 °F Hi 60 °F Lo 52 °F

 

Tonight
 
Patchy fog after 10pm. Otherwise, mostly cloudy, with a low around 61. Southwest wind around 5 mph becoming calm in the evening.
Thursday
 
Areas of fog before 11am. Otherwise, mostly cloudy, with a high near 74. Calm wind.
Thursday Night
 
Patchy drizzle after 5am. Patchy fog after 2am. Otherwise, mostly cloudy, with a low around 59. Calm wind.
Friday
 
Patchy drizzle and fog before 10am. Mostly cloudy, with a high near 72. Light east wind becoming southeast 5 to 10 mph in the afternoon.
Friday Night
 
Mostly cloudy, with a low around 59. Calm wind.
Saturday
 
Partly sunny, with a high near 73.
Saturday Night
 
Mostly cloudy, with a low around 50.
Sunday
 
Partly sunny, with a high near 60.
Sunday Night
 
Mostly cloudy, with a low around 52.
Monday
 
Mostly cloudy, with a high near 70.
Monday Night
 
Mostly cloudy, with a low around 58.
Tuesday
 
A chance of showers. Partly sunny, with a high near 71. Chance of precipitation is 40%.
Tuesday Night
 
A chance of showers. Mostly cloudy, with a low around 53. Chance of precipitation is 40%.
Wednesday
 
Partly sunny, with a high near 62.

 

Forecast from NOAA-NWS for Philadelphia PA.

Area Weather Current Conditions
Nearby METAR Reports

KPHL - Philadelphia, Pennsylvania
Updated: Wed, 21-Oct-2020 7:54pm EDT
Mostly Cloudy
Mostly Cloudy
 Wind from SW
Wind: SW 3 mph , 6 km/h
Temperature: 72°F , 22°C
Dew Point: 66°F , 19°C
Humidity: 83%
Barometer: 30.23 inHg , 1023.7 hPa
Clouds: Mostly Cloudy
Visibility: 10 miles , 16 km
Cloud details: Mostly Cloudy 3000 ft
2020/10/21 23:54 KPHL 212354Z 23003KT 10SM BKN030 22/19 A3023 RMK AO2 SLP236 T02220194 10250 20222 53013
KMPO - Mt. Pocono, Pennsylvania
Updated: Wed, 21-Oct-2020 7:53pm EDT
Overcast
Overcast
 Wind from WSW
Wind: WSW 5 mph , 7 km/h
Temperature: 61°F , 16°C
Dew Point: 57°F , 14°C
Humidity: 88%
Barometer: 30.25 inHg , 1024.4 hPa
Clouds: Overcast
Visibility: 10 miles , 16 km
Cloud details: Overcast 600 ft
2020/10/21 23:53 KMPO 212353Z AUTO 24004KT 10SM OVC006 16/14 A3025 RMK AO2 SLP242 T01560144 10167 20156 53006
 
KACY - Atlantic City, New Jersey
Updated: Wed, 21-Oct-2020 7:54pm EDT
Clear
Clear
 Wind from S
Wind: S 7 mph , 11 km/h
Temperature: 66°F , 19°C
Dew Point: 64°F , 18°C
Humidity: 94%
Barometer: 30.24 inHg , 1024 hPa
Clouds: Clear
Visibility: 10 miles , 16 km
2020/10/21 23:54 KACY 212354Z 18006KT 10SM CLR 19/18 A3024 RMK AO2 SLP239 T01940178 10239 20194 53007
KMIV - Millville, New Jersey
Updated: Wed, 21-Oct-2020 7:54pm EDT
Clear
Clear
 Wind from varies
Wind: varies 3 mph , 6 km/h
Temperature: 68°F , 20°C
Dew Point: 64°F , 18°C
Humidity: 88%
Barometer: 30.24 inHg , 1024 hPa
Clouds: Clear
Visibility: 10 miles , 16 km
2020/10/21 23:54 KMIV 212354Z AUTO VRB03KT 10SM CLR 20/18 A3024 RMK AO2 SLP237 T02000178 10250 20200 53012
 
KWWD - Wildwood, New Jersey
Updated: Wed, 21-Oct-2020 7:56pm EDT
Clear
Clear
 Wind from S
Wind: S 8 mph , 13 km/h
Temperature: 68°F , 20°C
Dew Point: 64°F , 18°C
Humidity: 88%
Barometer: 30.25 inHg , 1024.4 hPa
Clouds: Clear
2020/10/21 23:56 KWWD 212356Z AUTO 19007KT CLR 20/18 A3025 RMK AO2 SLP244 T02000178 10244 20200 53008 $
KDOV - Dover Afb, Delaware
Updated: Wed, 21-Oct-2020 7:56pm EDT
Overcast
Overcast
 Wind from S
Wind: S 5 mph , 7 km/h
Temperature: 68°F , 20°C
Dew Point: 66°F , 19°C
Humidity: 94%
Barometer: 30.23 inHg , 1023.7 hPa
Clouds: Overcast
Visibility: 10 miles , 16 km
Cloud details: Overcast 5000 ft
2020/10/21 23:56 KDOV 212356Z AUTO 18004KT 10SM OVC050 20/19 A3023 RMK AO2 SLP240 T02020185 10259 20195 52013 $
Severe Weather Map
https://www.wpc.ncep.noaa.gov/sfc/radsfcus_exp_new.gif